Provisional Data: Hunts Run near Cameron, PA


Please select a monitoring station.
Please select start date.
Please select start date.

Toggle Unit: C/F Toggle Unit: C/F
Sample Time Temperature (C) Temperature (F) Specific Conductivity (mS/cm) pH   Turbidity (NTU+) DO (mg/L)
8/1/2022 12:00:00 AM 17.83 64.094 0.047 6.69 1.8 8.53
8/1/2022 12:15:00 AM 17.78 64.004 0.047 6.69 1.96 8.55
8/1/2022 12:30:00 AM 17.73 63.914 0.047 6.68 1.94 8.54
8/1/2022 12:45:00 AM 17.67 63.806 0.047 6.69 2.08 8.57
8/1/2022 1:00:00 AM 17.62 63.716 0.047 6.69 1.77 8.57
8/1/2022 1:15:00 AM 17.58 63.644 0.047 6.69 1.91 8.59
8/1/2022 1:30:00 AM 17.53 63.554 0.047 6.68 1.93 8.59
8/1/2022 1:45:00 AM 17.48 63.464 0.047 6.69 1.9 8.61
8/1/2022 2:00:00 AM 17.43 63.374 0.047 6.69 2 8.6
8/1/2022 2:15:00 AM 17.38 63.284 0.047 6.69 1.74 8.62
8/1/2022 2:30:00 AM 17.33 63.194 0.047 6.69 1.83 8.65
8/1/2022 2:45:00 AM 17.29 63.122 0.047 6.69 1.82 8.65
8/1/2022 3:00:00 AM 17.26 63.068 0.047 6.68 1.82 8.65
8/1/2022 3:15:00 AM 17.23 63.014 0.047 6.68 1.79 8.64
8/1/2022 3:30:00 AM 17.19 62.942 0.047 6.68 2 8.66
8/1/2022 3:45:00 AM 17.14 62.852 0.047 6.68 2.16 8.69
8/1/2022 4:00:00 AM 17.11 62.798 0.047 6.69 1.86 8.69
8/1/2022 4:15:00 AM 17.09 62.762 0.047 6.68 2.4 8.7
8/1/2022 4:30:00 AM 17.06 62.708 0.047 6.69 1.82 8.71
8/1/2022 4:45:00 AM 17.04 62.672 0.047 6.68 1.82 8.72
8/1/2022 5:00:00 AM 17.02 62.636 0.047 6.68 1.83 8.72
8/1/2022 5:15:00 AM 17.01 62.618 0.047 6.68 2.1 8.71
8/1/2022 5:30:00 AM 16.99 62.582 0.047 6.69 1.91 8.72
8/1/2022 5:45:00 AM 16.97 62.546 0.047 6.68 2.03 8.71
8/1/2022 6:00:00 AM 16.94 62.492 0.047 6.69 1.78 8.74
8/1/2022 6:15:00 AM 16.92 62.456 0.047 6.68 1.89 8.75
8/1/2022 6:30:00 AM 16.9 62.42 0.047 6.68 1.82 8.75
8/1/2022 6:45:00 AM 16.9 62.42 0.047 6.68 1.81 8.74
8/1/2022 7:00:00 AM 16.88 62.384 0.047 6.68 1.76 8.79
8/1/2022 7:15:00 AM 16.88 62.384 0.047 6.69 1.77 8.8
8/1/2022 7:30:00 AM 16.88 62.384 0.047 6.7 1.77 8.84
8/1/2022 7:45:00 AM 16.88 62.384 0.047 6.7 1.88 8.86
8/1/2022 8:00:00 AM 16.89 62.402 0.047 6.7 1.75 8.89
8/1/2022 8:15:00 AM 16.9 62.42 0.047 6.72 1.75 8.95
8/1/2022 8:30:00 AM 16.92 62.456 0.046 6.72 1.88 9
8/1/2022 8:45:00 AM 16.94 62.492 0.046 6.74 1.85 9.09
8/1/2022 9:00:00 AM 16.98 62.564 0.046 6.75 1.74 9.14
8/1/2022 9:15:00 AM 17.04 62.672 0.046 6.78 1.81 9.29
8/1/2022 9:30:00 AM 17.08 62.744 0.046 6.8 1.8 9.36
8/1/2022 9:45:00 AM 17.11 62.798 0.046 6.81 1.93 9.37
8/1/2022 10:00:00 AM 17.17 62.906 0.046 6.81 1.85 9.33
8/1/2022 10:15:00 AM 17.25 63.05 0.046 6.8 1.71 9.36
8/1/2022 10:30:00 AM 17.38 63.284 0.045 6.82 2.09 9.44
8/1/2022 10:45:00 AM 17.51 63.518 0.045 6.85 1.74 9.53
8/1/2022 11:00:00 AM 17.65 63.77 0.045 6.89 1.75 9.65
8/1/2022 11:15:00 AM 17.75 63.95 0.045 6.89 1.75 9.63
8/1/2022 11:30:00 AM 17.91 64.238 0.045 6.91 1.77 9.66
8/1/2022 11:45:00 AM 18.03 64.454 0.045 6.96 1.77 9.7
8/1/2022 12:00:00 PM 18.19 64.742 0.044 6.94 1.8 9.63
8/1/2022 12:15:00 PM 18.41 65.138 0.044 6.92 1.66 9.61
8/1/2022 12:30:00 PM 18.62 65.516 0.044 6.93 1.68 9.56
8/1/2022 12:45:00 PM 18.87 65.966 0.044 6.95 1.63 9.56
8/1/2022 1:00:00 PM 19.16 66.488 0.044 6.95 1.65 9.54
8/1/2022 1:15:00 PM 19.6 67.28 0.044 6.96 1.78 9.48
8/1/2022 1:30:00 PM 19.82 67.676 0.044 6.97 1.78 9.44
8/1/2022 1:45:00 PM 19.96 67.92799 0.044 6.97 1.69 9.39
8/1/2022 2:00:00 PM 20.1 68.18 0.044 6.96 1.74 9.32
8/1/2022 2:15:00 PM 20.14 68.252 0.044 6.96 1.75 9.26
8/1/2022 2:30:00 PM 20.27 68.486 0.044 6.96 1.93 9.26
8/1/2022 2:45:00 PM 20.46 68.828 0.044 6.98 1.74 9.3
8/1/2022 3:00:00 PM 20.68 69.224 0.044 6.96 1.95 9.28
8/1/2022 3:15:00 PM 20.93 69.674 0.044 7 1.82 9.3
8/1/2022 3:30:00 PM 21.08 69.944 0.044 7.03 1.69 9.26
8/1/2022 3:45:00 PM 21.16 70.088 0.044 7 1.63 9.17
8/1/2022 4:00:00 PM 21.24 70.232 0.044 7.01 1.71 9.12
8/1/2022 4:15:00 PM 21.29 70.32201 0.044 7 1.66 9.07
8/1/2022 4:30:00 PM 21.33 70.394 0.044 6.95 1.65 8.99
8/1/2022 4:45:00 PM 21.35 70.43 0.044 6.93 1.6 8.87
8/1/2022 5:00:00 PM 21.37 70.466 0.044 6.92 1.64 8.83
8/1/2022 5:15:00 PM 21.32 70.376 0.044 6.92 1.8 8.77
8/1/2022 5:30:00 PM 21.21 70.17799 0.045 6.91 1.75 8.76
8/1/2022 5:45:00 PM 21.08 69.944 0.045 6.89 1.67 8.72
8/1/2022 6:00:00 PM 20.98 69.764 0.045 6.88 1.66 8.69
8/1/2022 6:15:00 PM 20.89 69.602 0.045 6.86 1.76 8.67
8/1/2022 6:30:00 PM 20.82 69.476 0.045 6.86 1.69 8.64
8/1/2022 6:45:00 PM 20.73 69.314 0.045 6.82 1.75 8.57
8/1/2022 7:00:00 PM 20.66 69.188 0.045 6.82 1.68 8.54
8/1/2022 7:15:00 PM 20.56 69.008 0.046 6.81 1.67 8.49
8/1/2022 7:30:00 PM 20.47 68.846 0.046 6.8 1.79 8.41
8/1/2022 7:45:00 PM 20.38 68.684 0.046 6.77 1.91 8.34
8/1/2022 8:00:00 PM 20.31 68.558 0.046 6.74 1.68 8.31
8/1/2022 8:15:00 PM 20.18 68.324 0.046 6.74 2.09 8.27
8/1/2022 8:30:00 PM 20.1 68.18 0.047 6.73 1.95 8.22
8/1/2022 8:45:00 PM 20 68 0.047 6.72 1.72 8.17
8/1/2022 9:00:00 PM 19.91 67.838 0.047 6.69 1.7 8.14
8/1/2022 9:15:00 PM 19.82 67.676 0.047 6.68 1.83 8.1
8/1/2022 9:30:00 PM 19.72 67.496 0.047 6.68 1.75 8.11
8/1/2022 9:45:00 PM 19.64 67.352 0.047 6.67 1.82 8.06
8/1/2022 10:00:00 PM 19.56 67.208 0.047 6.67 2.01 8.12
8/1/2022 10:15:00 PM 19.48 67.064 0.047 6.67 1.83 8.1
8/1/2022 10:30:00 PM 19.41 66.938 0.048 6.67 1.92 8.14
8/1/2022 10:45:00 PM 19.35 66.83 0.048 6.66 1.93 8.14
8/1/2022 11:00:00 PM 19.26 66.668 0.048 6.67 1.74 8.18
8/1/2022 11:15:00 PM 19.19 66.542 0.048 6.66 1.71 8.19
8/1/2022 11:30:00 PM 19.12 66.416 0.048 6.66 1.86 8.21
8/1/2022 11:45:00 PM 19.06 66.308 0.048 6.67 1.96 8.21
8/2/2022 12:00:00 AM 19 66.2 0.048 6.66 1.73 8.2
8/2/2022 12:15:00 AM 18.96 66.128 0.048 6.67 2.02 8.24
8/2/2022 12:30:00 AM 18.91 66.038 0.048 6.66 1.98 8.23
8/2/2022 12:45:00 AM 18.85 65.93 0.048 6.66 1.83 8.24
8/2/2022 1:00:00 AM 18.8 65.84 0.048 6.66 1.88 8.26
8/2/2022 1:15:00 AM 18.75 65.75 0.048 6.66 1.81 8.25
8/2/2022 1:30:00 AM 18.7 65.66 0.048 6.65 3.27 8.26
8/2/2022 1:45:00 AM 18.65 65.57 0.047 6.66 1.94 8.29
8/2/2022 2:00:00 AM 18.61 65.498 0.047 6.66 1.71 8.3
8/2/2022 2:15:00 AM 18.58 65.444 0.047 6.66 2.02 8.3
8/2/2022 2:30:00 AM 18.55 65.39 0.047 6.65 1.83 8.3
8/2/2022 2:45:00 AM 18.52 65.336 0.047 6.66 1.78 8.31
8/2/2022 3:00:00 AM 18.5 65.3 0.047 6.66 1.79 8.33
8/2/2022 3:15:00 AM 18.48 65.264 0.047 6.65 1.94 8.33
8/2/2022 3:30:00 AM 18.46 65.228 0.047 6.65 1.79 8.31
8/2/2022 3:45:00 AM 18.43 65.174 0.047 6.64 2.67 8.33
8/2/2022 4:00:00 AM 18.42 65.156 0.047 6.65 1.85 8.33
8/2/2022 4:15:00 AM 18.4 65.12 0.047 6.64 1.78 8.34
8/2/2022 4:30:00 AM 18.38 65.084 0.047 6.64 1.7 8.32
8/2/2022 4:45:00 AM 18.36 65.048 0.047 6.64 1.88 8.31
8/2/2022 5:00:00 AM 18.35 65.03 0.047 6.63 1.83 8.34
8/2/2022 5:15:00 AM 18.33 64.994 0.047 6.64 2.52 8.34
8/2/2022 5:30:00 AM 18.31 64.958 0.047 6.63 2.88 8.31
8/2/2022 5:45:00 AM 18.29 64.922 0.047 6.64 2.6 8.37
8/2/2022 6:00:00 AM 18.27 64.886 0.047 6.63 2.05 8.35
8/2/2022 6:15:00 AM 18.25 64.85 0.047 6.64 1.82 8.36
8/2/2022 6:30:00 AM 18.22 64.796 0.047 6.64 1.82 8.38
8/2/2022 6:45:00 AM 18.2 64.76 0.047 6.64 1.7 8.41
8/2/2022 7:00:00 AM 18.18 64.724 0.047 6.65 1.83 8.45
8/2/2022 7:15:00 AM 18.16 64.688 0.047 6.65 1.69 8.5
8/2/2022 7:30:00 AM 18.15 64.67 0.047 6.66 1.64 8.53
8/2/2022 7:45:00 AM 18.15 64.67 0.047 6.67 2.06 8.61
8/2/2022 8:00:00 AM 18.17 64.706 0.047 6.67 1.72 8.64
8/2/2022 8:15:00 AM 18.18 64.724 0.047 6.69 1.82 8.74
8/2/2022 8:30:00 AM 18.19 64.742 0.047 6.7 1.69 8.77
8/2/2022 8:45:00 AM 18.21 64.778 0.047 6.7 1.72 8.78
8/2/2022 9:00:00 AM 18.24 64.832 0.047 6.71 2.07 8.84
8/2/2022 9:15:00 AM 18.3 64.94 0.047 6.72 1.66 8.91
8/2/2022 9:30:00 AM 18.38 65.084 0.046 6.75 1.65 9
8/2/2022 9:45:00 AM 18.47 65.246 0.046 6.75 2.93 9.01
8/2/2022 10:00:00 AM 18.57 65.426 0.046 6.77 3.2 9.1
8/2/2022 10:15:00 AM 18.65 65.57 0.046 6.81 1.64 9.18
8/2/2022 10:30:00 AM 18.75 65.75 0.046 6.81 1.67 9.21
8/2/2022 10:45:00 AM 18.88 65.984 0.046 6.83 1.66 9.23
8/2/2022 11:00:00 AM 19 66.2 0.045 6.87 1.74 9.29
8/2/2022 11:15:00 AM 19.13 66.434 0.045 6.87 1.64 9.29
8/2/2022 11:30:00 AM 19.25 66.65 0.045 6.87 2.44 9.27
8/2/2022 11:45:00 AM 19.4 66.92 0.045 6.87 1.6 9.24
8/2/2022 12:00:00 PM 19.56 67.208 0.045 6.87 1.7 9.2
8/2/2022 12:15:00 PM 19.79 67.622 0.045 6.88 1.66 9.19
8/2/2022 12:30:00 PM 20.05 68.09 0.045 6.91 1.63 9.18
8/2/2022 12:45:00 PM 20.38 68.684 0.045 6.92 2.11 9.18
8/2/2022 1:00:00 PM 20.68 69.224 0.045 6.93 2 9.16
8/2/2022 1:15:00 PM 20.78 69.404 0.045 6.91 1.62 9.11
8/2/2022 1:30:00 PM 21.17 70.106 0.045 6.95 1.55 9.05
8/2/2022 1:45:00 PM 21.59 70.862 0.045 6.95 1.59 9.04
8/2/2022 2:00:00 PM 21.91 71.438 0.045 6.95 1.64 9.03
8/2/2022 2:15:00 PM 22.2 71.96 0.045 6.95 1.54 8.98
8/2/2022 2:30:00 PM 22.47 72.446 0.045 6.93 1.52 8.94
8/2/2022 2:45:00 PM 22.62 72.716 0.045 6.9 1.76 8.91
8/2/2022 3:00:00 PM 22.63 72.734 0.045 6.9 1.72 8.82
8/2/2022 3:15:00 PM 22.66 72.788 0.045 6.9 1.77 8.76
8/2/2022 3:30:00 PM 22.56 72.608 0.045 6.91 1.78 8.71
8/2/2022 3:45:00 PM 22.49 72.482 0.045 6.89 1.67 8.66
8/2/2022 4:00:00 PM 22.4 72.32 0.045 6.89 1.58 8.65
8/2/2022 4:15:00 PM 22.39 72.302 0.045 6.9 1.76 8.65
8/2/2022 4:30:00 PM 22.36 72.248 0.045 6.87 2.39 8.59
8/2/2022 4:45:00 PM 22.37 72.266 0.045 6.85 1.6 8.52
8/2/2022 5:00:00 PM 22.4 72.32 0.045 6.85 1.72 8.5
8/2/2022 5:15:00 PM 22.28 72.104 0.045 6.85 1.65 8.43
8/2/2022 5:30:00 PM 22.17 71.906 0.045 6.84 1.67 8.39
8/2/2022 5:45:00 PM 22 71.6 0.045 6.84 1.61 8.35
8/2/2022 6:00:00 PM 21.85 71.33 0.046 6.81 1.68 8.3
8/2/2022 6:15:00 PM 21.71 71.078 0.046 6.8 1.67 8.23
8/2/2022 6:30:00 PM 21.6 70.88 0.046 6.78 1.61 8.18
8/2/2022 6:45:00 PM 21.47 70.646 0.046 6.77 1.65 8.13
8/2/2022 7:00:00 PM 21.36 70.448 0.047 6.76 1.8 8.12
8/2/2022 7:15:00 PM 21.26 70.268 0.047 6.75 1.77 8.1
8/2/2022 7:30:00 PM 21.16 70.088 0.047 6.74 1.59 8.07
8/2/2022 7:45:00 PM 21.06 69.908 0.047 6.73 1.67 8.05
8/2/2022 8:00:00 PM 20.93 69.674 0.047 6.72 1.8 8.03
8/2/2022 8:15:00 PM 20.82 69.476 0.047 6.71 6.08 8.01
8/2/2022 8:30:00 PM 20.68 69.224 0.047 6.71 1.9 8
8/2/2022 8:45:00 PM 20.55 68.99 0.047 6.7 1.81 7.99
8/2/2022 9:00:00 PM 20.41 68.738 0.047 6.68 1.71 7.97
8/2/2022 9:15:00 PM 20.28 68.504 0.048 6.68 1.79 7.97
8/2/2022 9:30:00 PM 20.13 68.234 0.048 6.68 1.75 7.98
8/2/2022 9:45:00 PM 19.98 67.964 0.048 6.67 1.7 7.98
8/2/2022 10:00:00 PM 19.86 67.748 0.048 6.67 1.91 7.95
8/2/2022 10:15:00 PM 19.72 67.496 0.048 6.68 1.91 8.03
8/2/2022 10:30:00 PM 19.58 67.244 0.048 6.67 1.76 8.04
8/2/2022 10:45:00 PM 19.43 66.974 0.048 6.67 1.79 8.09
8/2/2022 11:00:00 PM 19.32 66.776 0.048 6.67 1.73 8.12
8/2/2022 11:15:00 PM 19.2 66.56 0.048 6.67 2.45 8.13
8/2/2022 11:30:00 PM 19.1 66.38 0.048 6.67 1.72 8.15
8/2/2022 11:45:00 PM 18.97 66.146 0.048 6.68 1.68 8.19
8/3/2022 12:00:00 AM 18.85 65.93 0.048 6.67 1.93 8.21
8/3/2022 12:15:00 AM 18.75 65.75 0.048 6.67 1.85 8.23
8/3/2022 12:30:00 AM 18.65 65.57 0.048 6.66 2.82 8.24
8/3/2022 12:45:00 AM 18.53 65.354 0.048 6.67 1.79 8.29
8/3/2022 1:00:00 AM 18.43 65.174 0.048 6.67 1.66 8.3
8/3/2022 1:15:00 AM 18.33 64.994 0.048 6.66 1.83 8.33
8/3/2022 1:30:00 AM 18.24 64.832 0.048 6.66 1.83 8.34
8/3/2022 1:45:00 AM 18.14 64.652 0.048 6.67 1.8 8.37
8/3/2022 2:00:00 AM 18.04 64.472 0.048 6.67 1.82 8.4
8/3/2022 2:15:00 AM 17.94 64.292 0.047 6.67 2.13 8.43
8/3/2022 2:30:00 AM 17.87 64.166 0.048 6.67 1.76 8.42
8/3/2022 2:45:00 AM 17.78 64.004 0.047 6.64 1.81 8.44
8/3/2022 3:00:00 AM 17.68 63.824 0.047 6.67 1.83 8.48
8/3/2022 3:15:00 AM 17.59 63.662 0.047 6.67 1.78 8.49
8/3/2022 3:30:00 AM 17.51 63.518 0.047 6.68 2.35 8.53
8/3/2022 3:45:00 AM 17.42 63.356 0.047 6.68 1.73 8.54
8/3/2022 4:00:00 AM 17.34 63.212 0.047 6.68 1.78 8.56
8/3/2022 4:15:00 AM 17.26 63.068 0.047 6.67 1.76 8.57
8/3/2022 4:30:00 AM 17.17 62.906 0.047 6.67 1.84 8.59
8/3/2022 4:45:00 AM 17.09 62.762 0.047 6.68 1.68 8.62
8/3/2022 5:00:00 AM 17.04 62.672 0.047 6.67 3.13 8.63
8/3/2022 5:15:00 AM 16.97 62.546 0.047 6.67 1.77 8.64
8/3/2022 5:30:00 AM 16.92 62.456 0.047 6.67 1.9 8.65
8/3/2022 5:45:00 AM 16.84 62.312 0.047 6.68 1.94 8.69
8/3/2022 6:00:00 AM 16.79 62.222 0.047 6.67 1.76 8.68
8/3/2022 6:15:00 AM 16.72 62.096 0.047 6.68 2.59 8.71
8/3/2022 6:30:00 AM 16.67 62.006 0.047 6.67 3.2 8.7
8/3/2022 6:45:00 AM 16.6 61.88 0.047 6.68 1.75 8.75
8/3/2022 7:00:00 AM 16.55 61.79 0.047 6.68 1.73 8.8
8/3/2022 7:15:00 AM 16.48 61.664 0.047 6.7 1.76 8.86
8/3/2022 7:30:00 AM 16.44 61.592 0.047 6.7 1.68 8.9
8/3/2022 7:45:00 AM 16.39 61.502 0.047 6.71 1.71 8.97
8/3/2022 8:00:00 AM 16.34 61.412 0.047 6.72 1.74 9.02
8/3/2022 8:15:00 AM 16.31 61.358 0.047 6.72 1.78 9.04
8/3/2022 8:30:00 AM 16.27 61.286 0.047 6.73 1.68 9.09
8/3/2022 8:45:00 AM 16.26 61.268 0.047 6.74 1.66 9.14
8/3/2022 9:00:00 AM 16.27 61.286 0.047 6.74 1.74 9.17
8/3/2022 9:15:00 AM 16.28 61.304 0.047 6.74 1.72 9.17
8/3/2022 9:30:00 AM 16.33 61.394 0.047 6.75 1.79 9.2
8/3/2022 9:45:00 AM 16.38 61.484 0.046 6.75 1.77 9.23
8/3/2022 10:00:00 AM 16.46 61.628 0.046 6.76 1.61 9.25
8/3/2022 10:15:00 AM 16.58 61.844 0.046 6.77 1.71 9.31
8/3/2022 10:30:00 AM 16.68 62.024 0.046 6.78 1.76 9.32
8/3/2022 10:45:00 AM 16.82 62.276 0.046 6.78 1.68 9.35
8/3/2022 11:00:00 AM 16.98 62.564 0.046 6.79 1.73 9.37
8/3/2022 11:15:00 AM 17.14 62.852 0.046 6.8 1.74 9.4
8/3/2022 11:30:00 AM 17.3 63.14 0.046 6.81 1.68 9.4
8/3/2022 11:45:00 AM 17.49 63.482 0.046 6.81 1.72 9.4
8/3/2022 12:00:00 PM 17.73 63.914 0.046 6.82 3.01 9.41
8/3/2022 12:15:00 PM 18.04 64.472 0.045 6.84 1.61 9.41
8/3/2022 12:30:00 PM 18.37 65.066 0.045 6.86 1.73 9.4
8/3/2022 12:45:00 PM 18.7 65.66 0.045 6.87 1.63 9.39
8/3/2022 1:00:00 PM 19.09 66.362 0.045 6.88 1.6 9.37
8/3/2022 1:15:00 PM 19.48 67.064 0.045 6.91 1.85 9.36
8/3/2022 1:30:00 PM 19.96 67.92799 0.045 6.93 1.62 9.33
8/3/2022 1:45:00 PM 20.51 68.918 0.045 6.94 1.59 9.26
8/3/2022 2:00:00 PM 20.86 69.548 0.045 6.94 1.72 9.24
8/3/2022 2:15:00 PM 21.2 70.16 0.045 6.93 1.67 9.2
8/3/2022 2:30:00 PM 21.47 70.646 0.045 6.93 1.76 9.15
8/3/2022 2:45:00 PM 21.75 71.15 0.045 6.92 2.04 9.12
8/3/2022 3:00:00 PM 21.93 71.474 0.045 6.9 2.2 9.07
8/3/2022 3:15:00 PM 22.09 71.762 0.045 6.86 1.69 9.04
8/3/2022 3:30:00 PM 22.15 71.87 0.045 6.88 1.72 8.91
8/3/2022 3:45:00 PM 22.18 71.924 0.045 6.88 1.72 8.85
8/3/2022 4:00:00 PM 22.23 72.014 0.045 6.87 1.79 8.75
8/3/2022 4:15:00 PM 22.28 72.104 0.045 6.87 2.21 8.64
8/3/2022 4:30:00 PM 22.32 72.176 0.045 6.85 1.6 8.55
8/3/2022 4:45:00 PM 22.38 72.284 0.045 6.84 1.68 8.49
8/3/2022 5:00:00 PM 22.45 72.41 0.045 6.82 1.61 8.46
8/3/2022 5:15:00 PM 22.4 72.32 0.045 6.78 1.82 8.37
8/3/2022 5:30:00 PM 22.33 72.194 0.045 6.73 1.62 8.29
8/3/2022 5:45:00 PM 22.22 71.996 0.045 6.76 1.64 8.24
8/3/2022 6:00:00 PM 22.08 71.744 0.046 6.76 1.82 8.19
8/3/2022 6:15:00 PM 21.97 71.546 0.046 6.75 1.64 8.16
8/3/2022 6:30:00 PM 21.87 71.366 0.046 6.71 1.96 8.07
8/3/2022 6:45:00 PM 21.8 71.24 0.046 6.7 1.59 8.05
8/3/2022 7:00:00 PM 21.73 71.114 0.046 6.71 1.67 8.04
8/3/2022 7:15:00 PM 21.65 70.97 0.047 6.71 1.64 8.02
8/3/2022 7:30:00 PM 21.54 70.772 0.047 6.68 1.67 7.93
8/3/2022 7:45:00 PM 21.47 70.646 0.047 6.69 1.68 7.95
8/3/2022 8:00:00 PM 21.36 70.448 0.047 6.67 1.67 7.89
8/3/2022 8:15:00 PM 21.27 70.286 0.047 6.67 1.81 7.91
8/3/2022 8:30:00 PM 21.17 70.106 0.047 6.66 1.84 7.86
8/3/2022 8:45:00 PM 21.06 69.908 0.047 6.65 1.69 7.83
8/3/2022 9:00:00 PM 20.97 69.746 0.047 6.65 1.79 7.82
8/3/2022 9:15:00 PM 20.86 69.548 0.048 6.64 1.81 7.81
8/3/2022 9:30:00 PM 20.75 69.35 0.048 6.63 2.05 7.79
8/3/2022 9:45:00 PM 20.64 69.152 0.048 6.63 1.76 7.8
8/3/2022 10:00:00 PM 20.54 68.972 0.048 6.64 1.64 7.83
8/3/2022 10:15:00 PM 20.43 68.774 0.048 6.63 1.69 7.85
8/3/2022 10:30:00 PM 20.34 68.612 0.048 6.63 1.79 7.84
8/3/2022 10:45:00 PM 20.23 68.414 0.048 6.63 1.89 7.86
8/3/2022 11:00:00 PM 20.13 68.234 0.048 6.63 2.2 7.87
8/3/2022 11:15:00 PM 20.06 68.108 0.048 6.63 1.92 7.89
8/3/2022 11:30:00 PM 19.97 67.946 0.048 6.63 1.7 7.9
8/3/2022 11:45:00 PM 19.88 67.784 0.048 6.63 1.71 7.91
8/4/2022 12:00:00 AM 19.82 67.676 0.048 6.61 1.87 7.9
8/4/2022 12:15:00 AM 19.73 67.514 0.048 6.62 1.69 7.93
8/4/2022 12:30:00 AM 19.67 67.406 0.048 6.62 1.72 7.96
8/4/2022 12:45:00 AM 19.59 67.262 0.048 6.63 1.76 8
8/4/2022 1:00:00 AM 19.53 67.154 0.048 6.62 2.84 8
8/4/2022 1:15:00 AM 19.46 67.028 0.048 6.62 1.85 8.02
8/4/2022 1:30:00 AM 19.41 66.938 0.048 6.62 1.87 8.01
8/4/2022 1:45:00 AM 19.34 66.812 0.048 6.63 2.14 8.06
8/4/2022 2:00:00 AM 19.28 66.704 0.048 6.62 1.93 8.02
8/4/2022 2:15:00 AM 19.24 66.632 0.048 6.62 1.77 8.06
8/4/2022 2:30:00 AM 19.17 66.506 0.048 6.63 2 8.08
8/4/2022 2:45:00 AM 19.11 66.398 0.048 6.62 2.01 8.08
8/4/2022 3:00:00 AM 19.07 66.326 0.048 6.63 1.71 8.11
8/4/2022 3:15:00 AM 19.03 66.254 0.048 6.63 1.8 8.11
8/4/2022 3:30:00 AM 19 66.2 0.048 6.62 1.84 8.11
8/4/2022 3:45:00 AM 18.95 66.11 0.048 6.63 1.99 8.15
8/4/2022 4:00:00 AM 18.91 66.038 0.048 6.62 1.74 8.13
8/4/2022 4:15:00 AM 18.86 65.948 0.048 6.63 1.67 8.16
8/4/2022 4:30:00 AM 18.83 65.894 0.048 6.62 1.72 8.17
8/4/2022 4:45:00 AM 18.79 65.82201 0.048 6.63 2.37 8.19
8/4/2022 5:00:00 AM 18.75 65.75 0.048 6.62 1.74 8.19
8/4/2022 5:15:00 AM 18.71 65.67799 0.048 6.62 1.77 8.2
8/4/2022 5:30:00 AM 18.66 65.588 0.048 6.62 2.07 8.19
8/4/2022 5:45:00 AM 18.62 65.516 0.048 6.63 2.09 8.22
8/4/2022 6:00:00 AM 18.58 65.444 0.048 6.63 1.81 8.24
8/4/2022 6:15:00 AM 18.54 65.372 0.048 6.62 1.78 8.25
8/4/2022 6:30:00 AM 18.51 65.318 0.048 6.63 1.72 8.27
8/4/2022 6:45:00 AM 18.48 65.264 0.048 6.62 1.82 8.27
8/4/2022 7:00:00 AM 18.45 65.21 0.048 6.63 1.76 8.31
8/4/2022 7:15:00 AM 18.42 65.156 0.048 6.64 1.85 8.36
8/4/2022 7:30:00 AM 18.41 65.138 0.048 6.63 1.77 8.39
8/4/2022 7:45:00 AM 18.39 65.102 0.048 6.64 1.98 8.45
8/4/2022 8:00:00 AM 18.38 65.084 0.048 6.66 1.74 8.51
8/4/2022 8:15:00 AM 18.39 65.102 0.047 6.67 1.71 8.58
8/4/2022 8:30:00 AM 18.4 65.12 0.047 6.67 2.12 8.61
8/4/2022 8:45:00 AM 18.42 65.156 0.047 6.68 1.87 8.69
8/4/2022 9:00:00 AM 18.45 65.21 0.047 6.7 1.82 8.74
8/4/2022 9:15:00 AM 18.49 65.282 0.047 6.7 1.67 8.8
8/4/2022 9:30:00 AM 18.53 65.354 0.047 6.69 1.66 8.77
8/4/2022 9:45:00 AM 18.59 65.462 0.047 6.71 1.66 8.88
8/4/2022 10:00:00 AM 18.7 65.66 0.047 6.73 1.67 8.92
8/4/2022 10:15:00 AM 18.82 65.876 0.047 6.74 1.7 8.98
8/4/2022 10:30:00 AM 18.96 66.128 0.046 6.77 1.65 9.06
8/4/2022 10:45:00 AM 19.13 66.434 0.046 6.78 1.69 9.1
8/4/2022 11:00:00 AM 19.29 66.722 0.046 6.8 1.87 9.09
8/4/2022 11:15:00 AM 19.42 66.956 0.046 6.8 1.66 9.09
8/4/2022 11:30:00 AM 19.58 67.244 0.046 6.81 1.6 9.1
8/4/2022 11:45:00 AM 19.8 67.64 0.046 6.82 1.67 9.09
8/4/2022 12:00:00 PM 20.02 68.036 0.046 6.84 1.66 9.09
8/4/2022 12:15:00 PM 20.35 68.63 0.046 6.85 1.66 9.09
8/4/2022 12:30:00 PM 20.4 68.72 0.046 6.81 1.76 8.96
8/4/2022 12:45:00 PM 20.37 68.666 0.046 6.77 1.94 8.81
8/4/2022 1:00:00 PM 20.35 68.63 0.046 6.76 2.08 8.71
8/4/2022 1:15:00 PM 20.36 68.648 0.046 6.76 2.22 8.59
8/4/2022 1:30:00 PM 20.34 68.612 0.046 6.73 1.94 8.5
8/4/2022 1:45:00 PM 20.31 68.558 0.046 6.7 2.3 8.47
8/4/2022 2:00:00 PM 20.28 68.504 0.046 6.71 2.05 8.48
8/4/2022 2:15:00 PM 20.3 68.54 0.046 6.73 2.05 8.56
8/4/2022 2:30:00 PM 20.34 68.612 0.046 6.74 1.89 8.64
8/4/2022 2:45:00 PM 20.43 68.774 0.046 6.78 2.6 8.82
8/4/2022 3:00:00 PM 20.53 68.954 0.045 6.79 1.9 8.9
8/4/2022 3:15:00 PM 20.64 69.152 0.045 6.83 1.94 8.99
8/4/2022 3:30:00 PM 20.77 69.386 0.045 6.86 1.89 9.06
8/4/2022 3:45:00 PM 20.88 69.584 0.045 6.86 1.96 9.08
8/4/2022 4:00:00 PM 20.97 69.746 0.045 6.87 1.84 9.04
8/4/2022 4:15:00 PM 21.01 69.818 0.045 6.86 1.9 8.97
8/4/2022 4:30:00 PM 21.03 69.854 0.045 6.81 1.8 8.88
8/4/2022 4:45:00 PM 21.06 69.908 0.045 6.83 1.93 8.86
8/4/2022 5:00:00 PM 21.09 69.962 0.045 6.85 1.86 8.87
8/4/2022 5:15:00 PM 21.1 69.98 0.045 6.86 1.76 8.89
8/4/2022 5:30:00 PM 21.09 69.962 0.045 6.86 2.02 8.84
8/4/2022 5:45:00 PM 21.04 69.872 0.045 6.82 1.82 8.75
8/4/2022 6:00:00 PM 21 69.8 0.045 6.81 2.37 8.65
8/4/2022 6:15:00 PM 20.96 69.728 0.045 6.79 2.47 8.61
8/4/2022 6:30:00 PM 20.92 69.656 0.046 6.73 1.82 8.58
8/4/2022 6:45:00 PM 20.87 69.566 0.046 6.79 1.83 8.62
8/4/2022 7:00:00 PM 20.81 69.458 0.046 6.77 1.88 8.52
8/4/2022 7:15:00 PM 20.77 69.386 0.046 6.76 1.83 8.46
8/4/2022 7:30:00 PM 20.71 69.278 0.046 6.73 1.86 8.38
8/4/2022 7:45:00 PM 20.66 69.188 0.046 6.72 1.8 8.35
8/4/2022 8:00:00 PM 20.61 69.098 0.046 6.71 1.8 8.27
8/4/2022 8:15:00 PM 20.54 68.972 0.047 6.69 1.88 8.19
8/4/2022 8:30:00 PM 20.47 68.846 0.047 6.68 1.75 8.13
8/4/2022 8:45:00 PM 20.41 68.738 0.047 6.66 1.88 8.06
8/4/2022 9:00:00 PM 20.34 68.612 0.047 6.65 1.8 8.03
8/4/2022 9:15:00 PM 20.27 68.486 0.047 6.64 1.84 8
8/4/2022 9:30:00 PM 20.21 68.378 0.047 6.63 1.82 7.97
8/4/2022 9:45:00 PM 20.14 68.252 0.048 6.63 2.3 7.97
8/4/2022 10:00:00 PM 20.07 68.126 0.048 6.62 1.84 7.99
8/4/2022 10:15:00 PM 20 68 0.048 6.62 2.13 7.99
8/4/2022 10:30:00 PM 19.95 67.91 0.048 6.62 1.94 7.98
8/4/2022 10:45:00 PM 19.9 67.82 0.048 6.62 1.93 7.98
8/4/2022 11:00:00 PM 19.84 67.712 0.048 6.62 2.17 8.01
8/4/2022 11:15:00 PM 19.78 67.604 0.048 6.62 1.72 8.03
8/4/2022 11:30:00 PM 19.75 67.55 0.048 6.62 1.88 8.02
8/4/2022 11:45:00 PM 19.69 67.442 0.048 6.62 2.04 8.04
8/5/2022 12:00:00 AM 19.65 67.37 0.048 6.62 1.79 8.06
8/5/2022 12:15:00 AM 19.61 67.298 0.048 6.62 1.99 8.05
8/5/2022 12:30:00 AM 19.56 67.208 0.048 6.61 2.03 8.07
8/5/2022 12:45:00 AM 19.52 67.136 0.048 6.62 1.86 8.1
8/5/2022 1:00:00 AM 19.49 67.082 0.048 6.62 1.75 8.1
8/5/2022 1:15:00 AM 19.46 67.028 0.048 6.61 1.9 8.11
8/5/2022 1:30:00 AM 19.43 66.974 0.048 6.61 1.95 8.11
8/5/2022 1:45:00 AM 19.4 66.92 0.048 6.62 1.7 8.13
8/5/2022 2:00:00 AM 19.37 66.866 0.048 6.62 1.93 8.14
8/5/2022 2:15:00 AM 19.34 66.812 0.048 6.63 2.27 8.16
8/5/2022 2:30:00 AM 19.31 66.758 0.048 6.63 1.76 8.17
8/5/2022 2:45:00 AM 19.28 66.704 0.048 6.63 1.7 8.2
8/5/2022 3:00:00 AM 19.25 66.65 0.048 6.63 1.85 8.2
8/5/2022 3:15:00 AM 19.23 66.614 0.048 6.64 2.03 8.21
8/5/2022 3:30:00 AM 19.2 66.56 0.048 6.64 1.81 8.21
8/5/2022 3:45:00 AM 19.18 66.524 0.048 6.63 1.69 8.21
8/5/2022 4:00:00 AM 19.15 66.47 0.048 6.64 1.89 8.22
8/5/2022 4:15:00 AM 19.12 66.416 0.048 6.63 1.84 8.23
8/5/2022 4:30:00 AM 19.1 66.38 0.048 6.63 1.84 8.24
8/5/2022 4:45:00 AM 19.07 66.326 0.048 6.63 1.86 8.24
8/5/2022 5:00:00 AM 19.05 66.29 0.048 6.63 2.21 8.25
8/5/2022 5:15:00 AM 19.02 66.236 0.048 6.64 1.77 8.26
8/5/2022 5:30:00 AM 19 66.2 0.048 6.64 1.9 8.28
8/5/2022 5:45:00 AM 18.98 66.164 0.048 6.64 1.84 8.28
8/5/2022 6:00:00 AM 18.95 66.11 0.048 6.64 2.13 8.3
8/5/2022 6:15:00 AM 18.93 66.074 0.048 6.65 1.83 8.31
8/5/2022 6:30:00 AM 18.91 66.038 0.048 6.65 1.85 8.32
8/5/2022 6:45:00 AM 18.89 66.002 0.048 6.65 1.74 8.31
8/5/2022 7:00:00 AM 18.87 65.966 0.048 6.65 2.01 8.36
8/5/2022 7:15:00 AM 18.85 65.93 0.048 6.66 1.88 8.4
8/5/2022 7:30:00 AM 18.85 65.93 0.048 6.66 1.69 8.44
8/5/2022 7:45:00 AM 18.84 65.912 0.048 6.67 1.96 8.48
8/5/2022 8:00:00 AM 18.84 65.912 0.048 6.67 1.78 8.52
8/5/2022 8:15:00 AM 18.84 65.912 0.048 6.68 2.7 8.57
8/5/2022 8:30:00 AM 18.85 65.93 0.048 6.69 1.71 8.62
8/5/2022 8:45:00 AM 18.89 66.002 0.048 6.7 2.01 8.74
8/5/2022 9:00:00 AM 18.93 66.074 0.048 6.73 1.74 8.84
8/5/2022 9:15:00 AM 18.97 66.146 0.047 6.74 1.73 8.92
8/5/2022 9:30:00 AM 19.02 66.236 0.047 6.76 2.28 8.98
8/5/2022 9:45:00 AM 19.08 66.344 0.047 6.78 1.7 9.04
8/5/2022 10:00:00 AM 19.13 66.434 0.047 6.78 1.77 9.09
8/5/2022 10:15:00 AM 19.2 66.56 0.047 6.8 1.75 9.14
8/5/2022 10:30:00 AM 19.27 66.686 0.047 6.81 1.85 9.17
8/5/2022 10:45:00 AM 19.34 66.812 0.047 6.82 1.95 9.19
8/5/2022 11:00:00 AM 19.4 66.92 0.046 6.84 1.93 9.21
8/5/2022 11:15:00 AM 19.44 66.992 0.046 6.83 1.69 9.19
8/5/2022 11:30:00 AM 19.47 67.046 0.046 6.83 1.68 9.14
8/5/2022 11:45:00 AM 19.5 67.1 0.046 6.81 1.86 9.09
8/5/2022 12:00:00 PM 19.54 67.172 0.046 6.81 2.54 9.1
8/5/2022 12:15:00 PM 19.61 67.298 0.046 6.83 1.82 9.15
8/5/2022 12:30:00 PM 19.69 67.442 0.046 6.84 2.04 9.21
8/5/2022 12:45:00 PM 19.82 67.676 0.046 6.85 1.78 9.24
8/5/2022 1:00:00 PM 20.09 68.162 0.046 6.87 1.74 9.29
8/5/2022 1:15:00 PM 20.28 68.504 0.046 6.9 1.78 9.31
8/5/2022 1:30:00 PM 20.5 68.9 0.046 6.91 1.77 9.31
8/5/2022 1:45:00 PM 21.02 69.836 0.046 6.93 1.72 9.26
8/5/2022 2:00:00 PM 21.42 70.556 0.046 6.93 1.73 9.18
8/5/2022 2:15:00 PM 21.72 71.096 0.046 6.93 1.73 9.13
8/5/2022 2:30:00 PM 21.95 71.51 0.046 6.92 1.66 9.04
8/5/2022 2:45:00 PM 22.23 72.014 0.046 6.89 1.65 8.99
8/5/2022 3:00:00 PM 22.51 72.518 0.046 6.92 1.67 8.96
8/5/2022 3:15:00 PM 22.69 72.842 0.046 6.9 1.81 8.89
8/5/2022 3:30:00 PM 22.8 73.04 0.046 6.92 1.72 8.81
8/5/2022 3:45:00 PM 22.78 73.004 0.046 6.9 1.76 8.71
8/5/2022 4:00:00 PM 22.78 73.004 0.046 6.89 1.9 8.62
8/5/2022 4:15:00 PM 22.74 72.932 0.046 6.86 1.75 8.53
8/5/2022 4:30:00 PM 22.74 72.932 0.046 6.85 1.99 8.49
8/5/2022 4:45:00 PM 22.78 73.004 0.046 6.86 1.68 8.49
8/5/2022 5:00:00 PM 22.81 73.058 0.047 6.85 2.33 8.46
8/5/2022 5:15:00 PM 22.76 72.968 0.047 6.83 2.18 8.42
8/5/2022 5:30:00 PM 22.71 72.878 0.047 6.82 1.79 8.36
8/5/2022 5:45:00 PM 22.65 72.77 0.047 6.79 2.35 8.32
8/5/2022 6:00:00 PM 22.58 72.644 0.047 6.82 3.38 8.34
8/5/2022 6:15:00 PM 22.5 72.5 0.047 6.79 1.74 8.27
8/5/2022 6:30:00 PM 22.38 72.284 0.047 6.76 1.73 8.13
8/5/2022 6:45:00 PM 22.22 71.996 0.047 6.78 2.04 8.13
8/5/2022 7:00:00 PM 22.09 71.762 0.046 6.77 2.29 8.2
8/5/2022 7:15:00 PM 21.96 71.528 0.046 6.78 2.29 8.19
8/5/2022 7:30:00 PM 21.8 71.24 0.045 6.75 2.33 8.12
8/5/2022 7:45:00 PM 21.61 70.898 0.044 6.72 2.75 8.05
8/5/2022 8:00:00 PM 21.44 70.592 0.044 6.7 2.5 8.03
8/5/2022 8:15:00 PM 21.24 70.232 0.044 6.69 2.44 8.03
8/5/2022 8:30:00 PM 21.1 69.98 0.044 6.68 2.61 8.05
8/5/2022 8:45:00 PM 20.93 69.674 0.044 6.68 3.11 8.1
8/5/2022 9:00:00 PM 20.75 69.35 0.043 6.68 3.98 8.19
8/5/2022 9:15:00 PM 20.57 69.026 0.041 6.66 4.37 8.29
8/5/2022 9:30:00 PM 20.43 68.774 0.039 6.64 4.28 8.34
8/5/2022 9:45:00 PM 20.33 68.594 0.039 6.62 5.63 8.35
8/5/2022 10:00:00 PM 20.28 68.504 0.039 6.62 7.18 8.34
8/5/2022 10:15:00 PM 20.2 68.36 0.039 6.62 8.37 8.37
8/5/2022 10:30:00 PM 20.14 68.252 0.039 6.61 7.48 8.4
8/5/2022 10:45:00 PM 20.09 68.162 0.039 6.61 7.36 8.41
8/5/2022 11:00:00 PM 20.04 68.07201 0.039 6.61 9.24 8.4
8/5/2022 11:15:00 PM 19.98 67.964 0.039 6.6 13.58 8.42
8/5/2022 11:30:00 PM 19.93 67.874 0.039 6.6 13.69 8.44
8/5/2022 11:45:00 PM 19.89 67.802 0.039 6.6 13.07 8.45
8/6/2022 12:00:00 AM 19.84 67.712 0.039 6.59 14.02 8.46
8/6/2022 12:15:00 AM 19.8 67.64 0.039 6.59 17.4 8.47
8/6/2022 12:30:00 AM 19.76 67.568 0.039 6.59 20.7 8.46
8/6/2022 12:45:00 AM 19.72 67.496 0.039 6.6 23.8 8.47
8/6/2022 1:00:00 AM 19.68 67.424 0.039 6.6 24.88 8.47
8/6/2022 1:15:00 AM 19.64 67.352 0.039 6.6 22.84 8.49
8/6/2022 1:30:00 AM 19.61 67.298 0.04 6.61 20.2 8.49
8/6/2022 1:45:00 AM 19.58 67.244 0.04 6.61 18.76 8.51
8/6/2022 2:00:00 AM 19.56 67.208 0.04 6.61 14.85 8.52
8/6/2022 2:15:00 AM 19.53 67.154 0.041 6.62 12.42 8.52
8/6/2022 2:30:00 AM 19.51 67.118 0.041 6.62 10.81 8.53
8/6/2022 2:45:00 AM 19.49 67.082 0.041 6.62 10.22 8.52
8/6/2022 3:00:00 AM 19.46 67.028 0.041 6.62 9.6 8.53
8/6/2022 3:15:00 AM 19.44 66.992 0.042 6.62 8.77 8.53
8/6/2022 3:30:00 AM 19.42 66.956 0.042 6.63 9.86 8.53
8/6/2022 3:45:00 AM 19.4 66.92 0.042 6.62 7.72 8.54
8/6/2022 4:00:00 AM 19.38 66.884 0.042 6.62 7.04 8.54
8/6/2022 4:15:00 AM 19.36 66.848 0.042 6.62 6.77 8.54
8/6/2022 4:30:00 AM 19.35 66.83 0.042 6.62 6.51 8.55
8/6/2022 4:45:00 AM 19.32 66.776 0.042 6.62 5.88 8.57
8/6/2022 5:00:00 AM 19.3 66.74 0.042 6.62 5.24 8.56
8/6/2022 5:15:00 AM 19.28 66.704 0.042 6.62 5.62 8.56
8/6/2022 5:30:00 AM 19.27 66.686 0.042 6.62 5.17 8.57
8/6/2022 5:45:00 AM 19.24 66.632 0.042 6.63 4.96 8.58
8/6/2022 6:00:00 AM 19.22 66.596 0.042 6.63 4.96 8.59
8/6/2022 6:15:00 AM 19.2 66.56 0.042 6.63 4.86 8.59
8/6/2022 6:30:00 AM 19.18 66.524 0.042 6.63 4.62 8.61
8/6/2022 6:45:00 AM 19.16 66.488 0.042 6.63 4.44 8.63
8/6/2022 7:00:00 AM 19.15 66.47 0.042 6.64 4.26 8.65
8/6/2022 7:15:00 AM 19.15 66.47 0.041 6.65 3.99 8.71
8/6/2022 7:30:00 AM 19.15 66.47 0.041 6.66 3.64 8.73
8/6/2022 7:45:00 AM 19.14 66.452 0.041 6.67 3.7 8.75
8/6/2022 8:00:00 AM 19.14 66.452 0.041 6.67 3.55 8.78
8/6/2022 8:15:00 AM 19.14 66.452 0.041 6.68 3.25 8.8
8/6/2022 8:30:00 AM 19.14 66.452 0.041 6.69 3.27 8.8
8/6/2022 8:45:00 AM 19.14 66.452 0.041 6.69 3.4 8.83
8/6/2022 9:00:00 AM 19.16 66.488 0.041 6.71 3.16 8.9
8/6/2022 9:15:00 AM 19.2 66.56 0.041 6.73 3.25 8.96
8/6/2022 9:30:00 AM 19.22 66.596 0.041 6.75 3.11 9.02
8/6/2022 9:45:00 AM 19.24 66.632 0.041 6.74 2.94 8.99
8/6/2022 10:00:00 AM 19.32 66.776 0.041 6.77 3 9.07
8/6/2022 10:15:00 AM 19.4 66.92 0.041 6.79 2.76 9.13
8/6/2022 10:30:00 AM 19.5 67.1 0.041 6.81 3.15 9.2
8/6/2022 10:45:00 AM 19.58 67.244 0.041 6.82 3.47 9.21
8/6/2022 11:00:00 AM 19.68 67.424 0.041 6.85 2.82 9.24
8/6/2022 11:15:00 AM 19.78 67.604 0.041 6.86 2.76 9.26
8/6/2022 11:30:00 AM 19.88 67.784 0.042 6.89 2.76 9.31
8/6/2022 11:45:00 AM 19.97 67.946 0.042 6.89 2.74 9.29
8/6/2022 12:00:00 PM 20.09 68.162 0.042 6.91 2.69 9.3
8/6/2022 12:15:00 PM 20.19 68.342 0.042 6.94 3 9.3
8/6/2022 12:30:00 PM 20.25 68.45 0.043 6.94 2.79 9.26
8/6/2022 12:45:00 PM 20.34 68.612 0.043 6.93 2.45 9.24
8/6/2022 1:00:00 PM 20.41 68.738 0.043 6.95 2.6 9.24
8/6/2022 1:15:00 PM 20.46 68.828 0.043 6.95 2.56 9.19
8/6/2022 1:30:00 PM 20.63 69.134 0.043 6.96 2.48 9.21
8/6/2022 1:45:00 PM 20.86 69.548 0.043 6.98 2.46 9.2
8/6/2022 2:00:00 PM 21.15 70.07 0.043 6.99 2.48 9.2
8/6/2022 2:15:00 PM 21.41 70.538 0.044 6.99 2.59 9.15
8/6/2022 2:30:00 PM 21.66 70.988 0.044 7 4.14 9.12
8/6/2022 2:45:00 PM 21.85 71.33 0.044 7.01 2.55 9.08
8/6/2022 3:00:00 PM 21.88 71.384 0.044 7 2.39 9
8/6/2022 3:15:00 PM 21.87 71.366 0.044 6.99 2.7 8.94
8/6/2022 3:30:00 PM 21.87 71.366 0.044 6.97 2.35 8.89
8/6/2022 3:45:00 PM 21.91 71.438 0.044 6.98 2.31 8.89
8/6/2022 4:00:00 PM 21.91 71.438 0.044 6.97 2.26 8.82
8/6/2022 4:15:00 PM 21.89 71.402 0.044 6.96 2.79 8.8
8/6/2022 4:30:00 PM 21.85 71.33 0.044 6.95 2.47 8.77
8/6/2022 4:45:00 PM 21.75 71.15 0.044 6.93 2.25 8.71
8/6/2022 5:00:00 PM 21.71 71.078 0.044 6.9 2.34 8.71
8/6/2022 5:15:00 PM 21.6 70.88 0.044 6.9 2.16 8.69
8/6/2022 5:30:00 PM 21.54 70.772 0.044 6.88 2.76 8.65
8/6/2022 5:45:00 PM 21.48 70.664 0.045 6.87 2.25 8.66
8/6/2022 6:00:00 PM 21.43 70.574 0.045 6.87 2.1 8.63
8/6/2022 6:15:00 PM 21.37 70.466 0.045 6.84 2.29 8.59
8/6/2022 6:30:00 PM 21.34 70.412 0.045 6.84 2.21 8.55
8/6/2022 6:45:00 PM 21.3 70.34 0.045 6.83 2.37 8.53
8/6/2022 7:00:00 PM 21.24 70.232 0.045 6.81 2.18 8.48
8/6/2022 7:15:00 PM 21.19 70.142 0.045 6.79 2.32 8.45
8/6/2022 7:30:00 PM 21.13 70.034 0.045 6.77 2.15 8.4
8/6/2022 7:45:00 PM 21.07 69.926 0.045 6.75 2.2 8.34
8/6/2022 8:00:00 PM 21.01 69.818 0.046 6.74 2.13 8.29
8/6/2022 8:15:00 PM 20.95 69.71 0.046 6.72 2.12 8.26
8/6/2022 8:30:00 PM 20.88 69.584 0.046 6.71 2.36 8.26
8/6/2022 8:45:00 PM 20.82 69.476 0.046 6.69 2.11 8.24
8/6/2022 9:00:00 PM 20.76 69.368 0.046 6.69 2.74 8.24
8/6/2022 9:15:00 PM 20.71 69.278 0.046 6.68 2.89 8.22
8/6/2022 9:30:00 PM 20.66 69.188 0.046 6.69 2.23 8.24
8/6/2022 9:45:00 PM 20.61 69.098 0.046 6.68 2.26 8.25
8/6/2022 10:00:00 PM 20.56 69.008 0.046 6.68 2.5 8.25
8/6/2022 10:15:00 PM 20.51 68.918 0.046 6.68 2.48 8.25
8/6/2022 10:30:00 PM 20.46 68.828 0.046 6.67 2.22 8.25
8/6/2022 10:45:00 PM 20.42 68.756 0.046 6.66 2.39 8.26
8/6/2022 11:00:00 PM 20.38 68.684 0.046 6.65 2.45 8.26
8/6/2022 11:15:00 PM 20.34 68.612 0.046 6.65 2.35 8.27
8/6/2022 11:30:00 PM 20.3 68.54 0.046 6.65 2.38 8.28
8/6/2022 11:45:00 PM 20.28 68.504 0.046 6.65 2.15 8.28
8/7/2022 12:00:00 AM 20.25 68.45 0.046 6.65 2.12 8.28
8/7/2022 12:15:00 AM 20.22 68.396 0.046 6.65 3.5 8.29
8/7/2022 12:30:00 AM 20.2 68.36 0.046 6.66 2.34 8.3
8/7/2022 12:45:00 AM 20.18 68.324 0.046 6.66 3.72 8.3
8/7/2022 1:00:00 AM 20.16 68.288 0.046 6.66 7.73 8.31
8/7/2022 1:15:00 AM 20.14 68.252 0.046 6.67 2.13 8.32
8/7/2022 1:30:00 AM 20.12 68.216 0.046 6.66 5.48 8.3
8/7/2022 1:45:00 AM 20.1 68.18 0.046 6.66 2.11 8.32
8/7/2022 2:00:00 AM 20.08 68.144 0.046 6.66 2.09 8.32
8/7/2022 2:15:00 AM 20.06 68.108 0.046 6.66 2.11 8.33
8/7/2022 2:30:00 AM 20.04 68.07201 0.046 6.66 2.13 8.31
8/7/2022 2:45:00 AM 20.02 68.036 0.046 6.66 2.09 8.32
8/7/2022 3:00:00 AM 20 68 0.046 6.66 2.18 8.31
8/7/2022 3:15:00 AM 19.98 67.964 0.046 6.66 2.19 8.32
8/7/2022 3:30:00 AM 19.95 67.91 0.046 6.66 1.95 8.33
8/7/2022 3:45:00 AM 19.93 67.874 0.046 6.66 2.04 8.32
8/7/2022 4:00:00 AM 19.91 67.838 0.046 6.66 2.32 8.31
8/7/2022 4:15:00 AM 19.89 67.802 0.046 6.67 2.25 8.34
8/7/2022 4:30:00 AM 19.87 67.766 0.046 6.67 2.03 8.34
8/7/2022 4:45:00 AM 19.85 67.73 0.046 6.67 2 8.35
8/7/2022 5:00:00 AM 19.83 67.694 0.046 6.68 2.05 8.35
8/7/2022 5:15:00 AM 19.81 67.658 0.046 6.67 2.16 8.35
8/7/2022 5:30:00 AM 19.79 67.622 0.046 6.67 2.03 8.34
8/7/2022 5:45:00 AM 19.77 67.586 0.046 6.67 2.08 8.36
8/7/2022 6:00:00 AM 19.75 67.55 0.046 6.67 2.03 8.35
8/7/2022 6:15:00 AM 19.73 67.514 0.046 6.67 2.2 8.36
8/7/2022 6:30:00 AM 19.71 67.478 0.046 6.67 2.08 8.36
8/7/2022 6:45:00 AM 19.69 67.442 0.046 6.67 2.07 8.38
8/7/2022 7:00:00 AM 19.68 67.424 0.046 6.67 1.98 8.43
8/7/2022 7:15:00 AM 19.67 67.406 0.046 6.68 2.07 8.44
8/7/2022 7:30:00 AM 19.66 67.388 0.046 6.68 2.4 8.47
8/7/2022 7:45:00 AM 19.66 67.388 0.046 6.69 2.12 8.53
8/7/2022 8:00:00 AM 19.66 67.388 0.046 6.68 2.02 8.58
8/7/2022 8:15:00 AM 19.66 67.388 0.046 6.7 2.04 8.59
8/7/2022 8:30:00 AM 19.66 67.388 0.046 6.7 2.06 8.59
8/7/2022 8:45:00 AM 19.66 67.388 0.046 6.7 1.97 8.6
8/7/2022 9:00:00 AM 19.68 67.424 0.046 6.71 1.99 8.66
8/7/2022 9:15:00 AM 19.69 67.442 0.046 6.72 1.93 8.71
8/7/2022 9:30:00 AM 19.72 67.496 0.046 6.73 2.09 8.76
8/7/2022 9:45:00 AM 19.74 67.532 0.046 6.73 1.93 8.77
8/7/2022 10:00:00 AM 19.76 67.568 0.046 6.74 2.15 8.81
8/7/2022 10:15:00 AM 19.82 67.676 0.046 6.75 1.97 8.88
8/7/2022 10:30:00 AM 19.87 67.766 0.046 6.77 1.98 8.96
8/7/2022 10:45:00 AM 19.92 67.856 0.046 6.78 1.93 8.96
8/7/2022 11:00:00 AM 20.01 68.018 0.046 6.8 2.69 9.05
8/7/2022 11:15:00 AM 20.06 68.108 0.046 6.83 2.01 9.05
8/7/2022 11:30:00 AM 20.12 68.216 0.045 6.83 2.35 9.05
8/7/2022 11:45:00 AM 20.21 68.378 0.045 6.84 2.04 9.11
8/7/2022 12:00:00 PM 20.36 68.648 0.045 6.87 1.96 9.14
8/7/2022 12:15:00 PM 20.55 68.99 0.045 6.88 1.95 9.13
8/7/2022 12:30:00 PM 20.72 69.296 0.045 6.89 2 9.15
8/7/2022 12:45:00 PM 20.83 69.494 0.045 6.9 1.98 9.1
8/7/2022 1:00:00 PM 21.03 69.854 0.045 6.91 2.08 9.07
8/7/2022 1:15:00 PM 21.16 70.088 0.045 6.93 2.07 9.05
8/7/2022 1:30:00 PM 21.51 70.718 0.045 6.93 1.98 9.05
8/7/2022 1:45:00 PM 21.72 71.096 0.045 6.95 1.89 9.03
8/7/2022 2:00:00 PM 21.75 71.15 0.045 6.95 1.99 8.94
8/7/2022 2:15:00 PM 21.9 71.42 0.045 6.93 2.06 8.87
8/7/2022 2:30:00 PM 22.03 71.654 0.045 6.93 2.14 8.84
8/7/2022 2:45:00 PM 22.22 71.996 0.045 6.92 1.97 8.84
8/7/2022 3:00:00 PM 22.41 72.338 0.045 6.93 1.96 8.83
8/7/2022 3:15:00 PM 22.48 72.464 0.045 6.94 1.93 8.8
8/7/2022 3:30:00 PM 22.63 72.734 0.045 6.93 1.98 8.76
8/7/2022 3:45:00 PM 22.71 72.878 0.045 6.92 2 8.69
8/7/2022 4:00:00 PM 22.79 73.022 0.045 6.91 1.93 8.62
8/7/2022 4:15:00 PM 22.86 73.148 0.045 6.91 1.99 8.55
8/7/2022 4:30:00 PM 22.92 73.256 0.045 6.91 1.96 8.56
8/7/2022 4:45:00 PM 22.95 73.31 0.045 6.9 2.19 8.51
8/7/2022 5:00:00 PM 22.94 73.292 0.045 6.89 1.84 8.47
8/7/2022 5:15:00 PM 22.84 73.112 0.045 6.88 1.92 8.42
8/7/2022 5:30:00 PM 22.75 72.95 0.045 6.87 1.96 8.38
8/7/2022 5:45:00 PM 22.67 72.806 0.045 6.85 1.91 8.35
8/7/2022 6:00:00 PM 22.57 72.626 0.045 6.85 2.01 8.33
8/7/2022 6:15:00 PM 22.51 72.518 0.046 6.84 2.11 8.36
8/7/2022 6:30:00 PM 22.45 72.41 0.046 6.84 1.96 8.35
8/7/2022 6:45:00 PM 22.38 72.284 0.046 6.83 1.92 8.34
8/7/2022 7:00:00 PM 22.3 72.14 0.046 6.8 1.93 8.32
8/7/2022 7:15:00 PM 22.22 71.996 0.046 6.8 2.02 8.27
8/7/2022 7:30:00 PM 22.14 71.852 0.046 6.79 2.05 8.22
8/7/2022 7:45:00 PM 22.06 71.708 0.046 6.77 2.1 8.16
8/7/2022 8:00:00 PM 21.98 71.564 0.046 6.76 1.9 8.13
8/7/2022 8:15:00 PM 21.9 71.42 0.046 6.74 1.91 8.07
8/7/2022 8:30:00 PM 21.82 71.276 0.047 6.72 2 8.02
8/7/2022 8:45:00 PM 21.73 71.114 0.047 6.7 2 7.96
8/7/2022 9:00:00 PM 21.65 70.97 0.047 6.68 1.94 7.93
8/7/2022 9:15:00 PM 21.56 70.808 0.047 6.67 2.14 7.94
8/7/2022 9:30:00 PM 21.49 70.682 0.047 6.67 2.05 7.92
8/7/2022 9:45:00 PM 21.41 70.538 0.047 6.66 2.26 7.94
8/7/2022 10:00:00 PM 21.34 70.412 0.047 6.66 1.93 7.94
8/7/2022 10:15:00 PM 21.27 70.286 0.047 6.65 1.92 7.94
8/7/2022 10:30:00 PM 21.22 70.196 0.047 6.64 2.2 7.94
8/7/2022 10:45:00 PM 21.15 70.07 0.047 6.66 2.08 7.99
8/7/2022 11:00:00 PM 21.1 69.98 0.048 6.64 1.95 7.95
8/7/2022 11:15:00 PM 21.04 69.872 0.047 6.66 1.86 7.99
8/7/2022 11:30:00 PM 20.99 69.782 0.048 6.65 1.98 7.98
8/7/2022 11:45:00 PM 20.94 69.692 0.048 6.65 2.08 7.98
8/8/2022 12:00:00 AM 20.89 69.602 0.048 6.64 2.47 8
8/8/2022 12:15:00 AM 20.84 69.512 0.048 6.65 1.94 8.02
8/8/2022 12:30:00 AM 20.79 69.422 0.048 6.64 2.41 8.02
8/8/2022 12:45:00 AM 20.76 69.368 0.047 6.65 1.96 8.01
8/8/2022 1:00:00 AM 20.71 69.278 0.047 6.64 1.94 8.02
8/8/2022 1:15:00 AM 20.66 69.188 0.047 6.65 2 8.05
8/8/2022 1:30:00 AM 20.62 69.116 0.047 6.64 2.02 8.05
8/8/2022 1:45:00 AM 20.59 69.062 0.047 6.64 1.96 8.05
8/8/2022 2:00:00 AM 20.55 68.99 0.047 6.65 2.09 8.07
8/8/2022 2:15:00 AM 20.51 68.918 0.047 6.65 2.1 8.07
8/8/2022 2:30:00 AM 20.48 68.864 0.047 6.65 1.96 8.09
8/8/2022 2:45:00 AM 20.45 68.81 0.047 6.65 1.94 8.09
8/8/2022 3:00:00 AM 20.42 68.756 0.047 6.65 2.01 8.11
8/8/2022 3:15:00 AM 20.39 68.702 0.047 6.65 2.06 8.11
8/8/2022 3:30:00 AM 20.36 68.648 0.047 6.65 1.94 8.1
8/8/2022 3:45:00 AM 20.32 68.576 0.047 6.65 1.96 8.1
8/8/2022 4:00:00 AM 20.29 68.522 0.047 6.66 1.88 8.12
8/8/2022 4:15:00 AM 20.27 68.486 0.047 6.66 2.18 8.1
8/8/2022 4:30:00 AM 20.24 68.432 0.047 6.66 2.25 8.14
8/8/2022 4:45:00 AM 20.21 68.378 0.047 6.65 1.89 8.13
8/8/2022 5:00:00 AM 20.18 68.324 0.047 6.65 1.82 8.14
8/8/2022 5:15:00 AM 20.15 68.27 0.047 6.65 2.1 8.15
8/8/2022 5:30:00 AM 20.13 68.234 0.047 6.65 2.04 8.15
8/8/2022 5:45:00 AM 20.1 68.18 0.047 6.65 1.99 8.15
8/8/2022 6:00:00 AM 20.08 68.144 0.047 6.64 1.95 8.13
8/8/2022 6:15:00 AM 20.05 68.09 0.047 6.65 2.5 8.14
8/8/2022 6:30:00 AM 20.03 68.054 0.047 6.65 2.13 8.14
8/8/2022 6:45:00 AM 20 68 0.047 6.65 2.05 8.19
8/8/2022 7:00:00 AM 19.99 67.982 0.047 6.66 1.88 8.22
8/8/2022 7:15:00 AM 19.98 67.964 0.047 6.66 1.9 8.24
8/8/2022 7:30:00 AM 19.97 67.946 0.047 6.66 1.86 8.26
8/8/2022 7:45:00 AM 19.96 67.92799 0.047 6.67 1.92 8.28
8/8/2022 8:00:00 AM 19.97 67.946 0.047 6.67 1.88 8.35
8/8/2022 8:15:00 AM 19.98 67.964 0.047 6.68 1.9 8.39
8/8/2022 8:30:00 AM 19.99 67.982 0.047 6.69 1.87 8.44
8/8/2022 8:45:00 AM 20 68 0.047 6.69 1.83 8.47
8/8/2022 9:00:00 AM 20.02 68.036 0.047 6.7 1.88 8.49
8/8/2022 9:15:00 AM 20.05 68.09 0.047 6.7 2 8.55
8/8/2022 9:30:00 AM 20.09 68.162 0.047 6.72 1.89 8.63
8/8/2022 9:45:00 AM 20.15 68.27 0.047 6.74 2.3 8.69
8/8/2022 10:00:00 AM 20.2 68.36 0.047 6.75 1.81 8.72
8/8/2022 10:15:00 AM 20.26 68.468 0.046 6.78 2.03 8.79
8/8/2022 10:30:00 AM 20.32 68.576 0.046 6.8 2.23 8.81
8/8/2022 10:45:00 AM 20.41 68.738 0.046 6.82 1.79 8.88
8/8/2022 11:00:00 AM 20.53 68.954 0.046 6.85 1.87 8.97
8/8/2022 11:15:00 AM 20.62 69.116 0.046 6.88 2.02 9.01
8/8/2022 11:30:00 AM 20.7 69.26 0.046 6.88 2.3 8.95
8/8/2022 11:45:00 AM 20.81 69.458 0.046 6.88 1.93 8.97
8/8/2022 12:00:00 PM 20.97 69.746 0.046 6.88 2.38 9
8/8/2022 12:15:00 PM 21.17 70.106 0.045 6.9 1.95 9.04
8/8/2022 12:30:00 PM 21.32 70.376 0.045 6.93 2.02 9.08
8/8/2022 12:45:00 PM 21.44 70.592 0.045 6.97 2.15 9.09
8/8/2022 1:00:00 PM 21.6 70.88 0.045 6.97 1.89 9.07
8/8/2022 1:15:00 PM 21.69 71.042 0.045 6.98 1.93 9.04
8/8/2022 1:30:00 PM 21.75 71.15 0.045 6.98 1.98 8.99
8/8/2022 1:45:00 PM 21.8 71.24 0.045 6.96 1.92 8.94
8/8/2022 2:00:00 PM 21.86 71.348 0.045 6.98 2.02 8.96
8/8/2022 2:15:00 PM 21.91 71.438 0.045 6.99 1.98 8.93
8/8/2022 2:30:00 PM 21.95 71.51 0.045 6.97 1.93 8.86
8/8/2022 2:45:00 PM 21.97 71.546 0.045 6.96 1.83 8.79
8/8/2022 3:00:00 PM 21.97 71.546 0.045 6.92 2.06 8.7
8/8/2022 3:15:00 PM 22.01 71.618 0.045 6.92 2.06 8.69
8/8/2022 3:30:00 PM 22.01 71.618 0.045 6.93 1.98 8.71
8/8/2022 3:45:00 PM 22.02 71.636 0.045 6.92 1.84 8.65
8/8/2022 4:00:00 PM 22 71.6 0.045 6.91 1.94 8.63
8/8/2022 4:15:00 PM 22 71.6 0.045 6.89 2.2 8.6
8/8/2022 4:30:00 PM 22.02 71.636 0.045 6.89 1.99 8.63
8/8/2022 4:45:00 PM 22.05 71.69 0.045 6.91 1.91 8.67
8/8/2022 5:00:00 PM 22.06 71.708 0.045 6.91 1.85 8.66
8/8/2022 5:15:00 PM 22.05 71.69 0.045 6.87 2.52 8.51
8/8/2022 5:30:00 PM 22.07 71.726 0.045 6.88 2.62 8.52
8/8/2022 5:45:00 PM 22.06 71.708 0.045 6.86 2.14 8.47
8/8/2022 6:00:00 PM 22.01 71.618 0.046 6.83 2.03 8.37
8/8/2022 6:15:00 PM 21.96 71.528 0.046 6.82 1.94 8.3
8/8/2022 6:30:00 PM 21.93 71.474 0.046 6.81 2.09 8.29
8/8/2022 6:45:00 PM 21.9 71.42 0.046 6.8 2.01 8.3
8/8/2022 7:00:00 PM 21.86 71.348 0.046 6.79 2.1 8.27
8/8/2022 7:15:00 PM 21.83 71.294 0.046 6.78 1.9 8.21
8/8/2022 7:30:00 PM 21.79 71.222 0.046 6.76 2.03 8.15
8/8/2022 7:45:00 PM 21.74 71.132 0.046 6.75 1.99 8.12
8/8/2022 8:00:00 PM 21.69 71.042 0.047 6.73 1.8 8.06
8/8/2022 8:15:00 PM 21.61 70.898 0.047 6.71 2.06 7.99
8/8/2022 8:30:00 PM 21.55 70.79 0.047 6.7 1.95 7.95
8/8/2022 8:45:00 PM 21.48 70.664 0.047 6.69 2.04 7.91
8/8/2022 9:00:00 PM 21.43 70.574 0.047 6.67 1.92 7.87
8/8/2022 9:15:00 PM 21.35 70.43 0.048 6.67 1.93 7.85
8/8/2022 9:30:00 PM 21.28 70.304 0.048 6.66 2.34 7.81
8/8/2022 9:45:00 PM 21.22 70.196 0.048 6.65 2.09 7.83
8/8/2022 10:00:00 PM 21.16 70.088 0.048 6.64 2.27 7.84
8/8/2022 10:15:00 PM 21.1 69.98 0.048 6.65 2.13 7.87
8/8/2022 10:30:00 PM 21.04 69.872 0.048 6.64 1.86 7.86
8/8/2022 10:45:00 PM 20.98 69.764 0.048 6.65 2.37 7.89
8/8/2022 11:00:00 PM 20.93 69.674 0.048 6.64 2.18 7.88
8/8/2022 11:15:00 PM 20.88 69.584 0.048 6.64 2.08 7.92
8/8/2022 11:30:00 PM 20.83 69.494 0.048 6.64 2.1 7.9
8/8/2022 11:45:00 PM 20.79 69.422 0.048 6.64 2.1 7.92
8/9/2022 12:00:00 AM 20.75 69.35 0.048 6.64 1.95 7.93
8/9/2022 12:15:00 AM 20.72 69.296 0.048 6.64 1.93 7.91
8/9/2022 12:30:00 AM 20.69 69.242 0.048 6.64 1.93 7.94
8/9/2022 12:45:00 AM 20.66 69.188 0.048 6.64 1.87 7.96
8/9/2022 1:00:00 AM 20.64 69.152 0.048 6.64 1.94 7.95
8/9/2022 1:15:00 AM 20.61 69.098 0.048 6.65 2.04 7.97
8/9/2022 1:30:00 AM 20.6 69.08 0.048 6.64 2.48 7.98
8/9/2022 1:45:00 AM 20.58 69.044 0.048 6.64 2.19 7.97
8/9/2022 2:00:00 AM 20.56 69.008 0.048 6.63 1.95 7.96
8/9/2022 2:15:00 AM 20.54 68.972 0.048 6.62 1.88 7.93
8/9/2022 2:30:00 AM 20.51 68.918 0.047 6.62 2.22 7.94
8/9/2022 2:45:00 AM 20.49 68.882 0.047 6.6 2.08 7.93
8/9/2022 3:00:00 AM 20.47 68.846 0.047 6.61 2.32 7.93
8/9/2022 3:15:00 AM 20.45 68.81 0.047 6.61 2.13 7.95
8/9/2022 3:30:00 AM 20.43 68.774 0.047 6.62 2.15 7.99
8/9/2022 3:45:00 AM 20.41 68.738 0.047 6.62 2.13 8.01
8/9/2022 4:00:00 AM 20.4 68.72 0.047 6.61 2.19 8.01
8/9/2022 4:15:00 AM 20.38 68.684 0.047 6.62 2.28 8.05
8/9/2022 4:30:00 AM 20.36 68.648 0.047 6.62 2.29 8.07
8/9/2022 4:45:00 AM 20.34 68.612 0.047 6.62 2.16 8.08
8/9/2022 5:00:00 AM 20.32 68.576 0.047 6.62 2.33 8.09
8/9/2022 5:15:00 AM 20.3 68.54 0.047 6.61 2.2 8.07
8/9/2022 5:30:00 AM 20.28 68.504 0.047 6.6 2.41 8.09
8/9/2022 5:45:00 AM 20.27 68.486 0.047 6.6 2.27 8.09
8/9/2022 6:00:00 AM 20.26 68.468 0.047 6.62 2.23 8.09
8/9/2022 6:15:00 AM 20.24 68.432 0.047 6.62 2.06 8.1
8/9/2022 6:30:00 AM 20.23 68.414 0.047 6.63 2.1 8.12
8/9/2022 6:45:00 AM 20.22 68.396 0.047 6.63 2.89 8.14
8/9/2022 7:00:00 AM 20.21 68.378 0.047 6.64 2.13 8.17
8/9/2022 7:15:00 AM 20.21 68.378 0.047 6.64 1.97 8.17
8/9/2022 7:30:00 AM 20.2 68.36 0.047 6.64 2.07 8.2
8/9/2022 7:45:00 AM 20.19 68.342 0.047 6.65 2.07 8.21
8/9/2022 8:00:00 AM 20.2 68.36 0.047 6.65 2.08 8.23
8/9/2022 8:15:00 AM 20.2 68.36 0.047 6.67 1.99 8.28
8/9/2022 8:30:00 AM 20.22 68.396 0.047 6.69 2.05 8.4
8/9/2022 8:45:00 AM 20.23 68.414 0.047 6.7 2.47 8.44
8/9/2022 9:00:00 AM 20.23 68.414 0.047 6.69 2.35 8.43
8/9/2022 9:15:00 AM 20.24 68.432 0.047 6.69 1.99 8.43
8/10/2022 11:30:00 AM -99999.99 -179968 -99999.99 -99999.99 -99999.99 -99999.99

These are provisional data and have not been subject to a quality assurance process, but rather are the raw data reported by the instrument.
H: value is above sensor operating range
L: value is below sensor operating range
Offline: station is not reporting data
NC: parameter is not collected at site

Data Availability & Limitations

Uncertainty and potential for error can be associated with environmental monitoring data. Provisional data have not been subject to a quality assurance process, but rather are the raw data reported by the instrument. Data users are cautioned to consider carefully the provisional nature of the information before using it for decisions that concern personal or public safety or the conduct of business that involves substantial monetary or operational consequences.

Approved data are currently available by request by emailing: srbc@srbc.net. Approved data have been subject to a quality assurance process to correct for equipment or fouling drift. Data recorded during equipment malfunctions have been removed.

View Historical Stations that have been discontinued.